createdAt,value
2019-05-19T00:00:11.400Z,94188.4
2019-05-19T00:01:13.554Z,94181.3
2019-05-19T00:02:15.980Z,94183.1
2019-05-19T00:03:18.139Z,94184
2019-05-19T00:04:20.299Z,94183.7
2019-05-19T00:05:22.438Z,94183
2019-05-19T00:06:24.870Z,94181.2
2019-05-19T00:07:27.291Z,94179.1
2019-05-19T00:08:29.461Z,94185.7
2019-05-19T00:09:31.639Z,94184.9
2019-05-19T00:10:34.065Z,94186
2019-05-19T00:11:36.204Z,94189
2019-05-19T00:12:38.365Z,94184.3
2019-05-19T00:13:40.236Z,94187.5
2019-05-19T00:14:42.603Z,94191.5
2019-05-19T00:15:44.205Z,94190.6
2019-05-19T00:16:46.396Z,94189.7
2019-05-19T00:17:48.547Z,94189.3
2019-05-19T00:18:50.974Z,94192.1
2019-05-19T00:19:53.401Z,94187.2
2019-05-19T00:20:55.296Z,94188
2019-05-19T00:21:57.731Z,94189.4
2019-05-19T00:23:00.162Z,94183.3
2019-05-19T00:24:02.053Z,94188
2019-05-19T00:25:04.483Z,94181.9
2019-05-19T00:26:06.652Z,94185.2
2019-05-19T00:27:08.798Z,94183.7
2019-05-19T00:28:10.965Z,94181.1
2019-05-19T00:29:12.826Z,94183.7
2019-05-19T00:30:14.955Z,94185
2019-05-19T00:31:17.291Z,94180
2019-05-19T00:32:19.741Z,94181.2
2019-05-19T00:33:22.169Z,94180.1
2019-05-19T00:34:24.597Z,94186.5
2019-05-19T00:35:26.655Z,94180.6
2019-05-19T00:36:29.224Z,94184.4
2019-05-19T00:37:31.354Z,94180.6
2019-05-19T00:38:33.798Z,94176.8
2019-05-19T00:39:36.253Z,94183.2
2019-05-19T00:40:38.666Z,94179.1
2019-05-19T00:41:40.814Z,94176.5
2019-05-19T00:42:43.241Z,94177.6
2019-05-19T00:43:45.695Z,94176.1
2019-05-19T00:44:47.851Z,94170.6
2019-05-19T00:45:49.728Z,94175.2
2019-05-19T00:46:52.162Z,94179.6
2019-05-19T00:47:54.324Z,94180.7
2019-05-19T00:48:56.494Z,94180.1
2019-05-19T00:49:58.923Z,94183.1
2019-05-19T00:51:01.089Z,94182.5
2019-05-19T00:52:03.506Z,94181.4
2019-05-19T00:53:05.657Z,94181.1
2019-05-19T00:54:08.085Z,94180.5
2019-05-19T00:55:10.677Z,94182.5
2019-05-19T00:56:12.545Z,94180.8
2019-05-19T00:57:14.974Z,94182.5
2019-05-19T00:58:17.417Z,94182.2
2019-05-19T00:59:19.566Z,94183.1
2019-05-19T01:00:22.008Z,94181.7
2019-05-19T01:01:24.157Z,94181.7
2019-05-19T01:02:26.590Z,94180.6
2019-05-19T01:03:29.026Z,94184.8
2019-05-19T01:04:30.923Z,94183.6
2019-05-19T01:05:33.091Z,94180.7
2019-05-19T01:06:35.209Z,94186.3
2019-05-19T01:07:37.354Z,94184.1
2019-05-19T01:08:39.796Z,94185
2019-05-19T01:09:42.232Z,94180.4
2019-05-19T01:10:43.822Z,94187
2019-05-19T01:11:45.742Z,94185.4
2019-05-19T01:12:48.175Z,94182
2019-05-19T01:13:50.606Z,94183.8
2019-05-19T01:14:52.776Z,94180
2019-05-19T01:15:55.204Z,94175.5
2019-05-19T01:16:57.370Z,94184.6
2019-05-19T01:17:59.531Z,94183.6
2019-05-19T01:19:01.685Z,94185.2
2019-05-19T01:20:04.113Z,94184.4
2019-05-19T01:21:06.540Z,94185.3
2019-05-19T01:22:08.711Z,94182.5
2019-05-19T01:23:11.143Z,94181.7
2019-05-19T01:24:13.588Z,94183.8
2019-05-19T01:25:16.026Z,94185.3
2019-05-19T01:26:18.195Z,94183.6
2019-05-19T01:27:20.627Z,94187.6
2019-05-19T01:28:23.072Z,94185.3
2019-05-19T01:29:25.225Z,94183
2019-05-19T01:30:27.405Z,94177.6
2019-05-19T01:31:29.644Z,94182.8
2019-05-19T01:32:32.075Z,94180.2
2019-05-19T01:33:34.258Z,94180.9
2019-05-19T01:34:36.681Z,94183.2
2019-05-19T01:35:38.883Z,94182.2
2019-05-19T01:36:41.307Z,94185.8
2019-05-19T01:37:43.466Z,94189.1
2019-05-19T01:38:45.893Z,94186.8
2019-05-19T01:39:48.324Z,94191.1
2019-05-19T01:40:50.491Z,94187.2
2019-05-19T01:41:52.916Z,94193.7
2019-05-19T01:42:55.073Z,94197.2
2019-05-19T01:43:57.224Z,94193.9
2019-05-19T01:44:59.082Z,94198.8
2019-05-19T01:46:01.528Z,94199
2019-05-19T01:47:03.950Z,94202
2019-05-19T01:48:06.106Z,94201.7
2019-05-19T01:49:08.577Z,94202.5
2019-05-19T01:51:15.439Z,94200.6
2019-05-19T01:52:17.866Z,94196.4
2019-05-19T01:53:20.016Z,94200.4
2019-05-19T01:54:22.174Z,94196.7
2019-05-19T01:55:24.340Z,94198
2019-05-19T01:56:26.202Z,94199.7
2019-05-19T01:57:28.355Z,94202.8
2019-05-19T01:58:30.494Z,94202.8
2019-05-19T01:59:32.925Z,94203.5
2019-05-19T02:00:35.086Z,94206.4
2019-05-19T02:01:37.521Z,94206.3
2019-05-19T02:02:39.963Z,94208.9
2019-05-19T02:03:42.408Z,94211.5
2019-05-19T02:04:44.838Z,94211.4
2019-05-19T02:05:47.006Z,94209.8
2019-05-19T02:06:49.446Z,94205.8
2019-05-19T02:07:51.896Z,94209.5
2019-05-19T02:08:54.022Z,94216
2019-05-19T02:09:56.188Z,94215.3
2019-05-19T02:10:58.333Z,94210.3
2019-05-19T02:12:00.765Z,94214.8
2019-05-19T02:14:08.169Z,94213.1
2019-05-19T02:15:10.617Z,94216
2019-05-19T02:16:13.043Z,94216.5
2019-05-19T02:17:15.484Z,94214.6
2019-05-19T02:18:17.912Z,94212.4
2019-05-19T02:19:20.343Z,94211.8
2019-05-19T02:21:27.480Z,94211.2
2019-05-19T02:22:29.910Z,94211.3
2019-05-19T02:23:32.933Z,94212.8
2019-05-19T02:24:35.360Z,94209.1
2019-05-19T02:25:37.522Z,94210.5
2019-05-19T02:26:39.682Z,94210.3
2019-05-19T02:27:41.584Z,94212
2019-05-19T02:28:44.027Z,94213
2019-05-19T02:29:46.463Z,94210.1
2019-05-19T02:30:48.908Z,94211.3
2019-05-19T02:31:51.047Z,94215.8
2019-05-19T02:32:53.222Z,94215
2019-05-19T02:33:55.657Z,94219.3
2019-05-19T02:34:58.084Z,94222.9
2019-05-19T02:36:00.248Z,94222.4
2019-05-19T02:37:02.430Z,94219.8
2019-05-19T02:38:04.875Z,94226.4
2019-05-19T02:39:07.091Z,94229.8
2019-05-19T02:40:09.292Z,94223.8
2019-05-19T02:41:11.720Z,94229.2
2019-05-19T02:42:14.156Z,94230.2
2019-05-19T02:43:16.593Z,94230.7
2019-05-19T02:44:18.502Z,94231.4
2019-05-19T02:45:20.945Z,94230.8
2019-05-19T02:46:22.858Z,94230.4
2019-05-19T02:47:25.277Z,94234.2
2019-05-19T02:48:27.709Z,94231
2019-05-19T02:49:29.851Z,94228.4
2019-05-19T02:50:49.262Z,94229.4
2019-05-19T02:51:38.485Z,94231.1
2019-05-19T02:52:40.363Z,94232.4
2019-05-19T02:53:42.507Z,94228.4
2019-05-19T02:54:44.672Z,94227.9
2019-05-19T02:55:46.827Z,94229.7
2019-05-19T02:56:48.984Z,94228.3
2019-05-19T02:57:51.414Z,94230.6
2019-05-19T02:58:53.607Z,94230.6
2019-05-19T02:59:56.039Z,94227.6
2019-05-19T03:00:58.193Z,94226.4
2019-05-19T03:02:00.646Z,94224.7
2019-05-19T03:03:03.073Z,94225.6
2019-05-19T03:04:05.238Z,94221.3
2019-05-19T03:05:07.669Z,94221.8
2019-05-19T03:06:10.090Z,94221.9
2019-05-19T03:07:12.574Z,94217.9
2019-05-19T03:08:14.735Z,94222.8
2019-05-19T03:09:16.892Z,94218.6
2019-05-19T03:10:19.313Z,94217.7
2019-05-19T03:11:21.742Z,94219.2
2019-05-19T03:12:23.897Z,94218.2
2019-05-19T03:13:26.334Z,94217.9
2019-05-19T03:14:28.659Z,94216.7
2019-05-19T03:15:31.093Z,94220.6
2019-05-19T03:16:33.571Z,94220.4
2019-05-19T03:17:35.699Z,94220.9
2019-05-19T03:18:37.975Z,94220.1
2019-05-19T03:19:40.137Z,94215.8
2019-05-19T03:20:42.289Z,94218.2
2019-05-19T03:21:44.716Z,94219.7
2019-05-19T03:22:46.856Z,94221.1
2019-05-19T03:23:49.296Z,94220.9
2019-05-19T03:24:51.470Z,94219.4
2019-05-19T03:25:53.912Z,94223.4
2019-05-19T03:26:55.799Z,94225
2019-05-19T03:27:58.517Z,94228
2019-05-19T03:29:00.955Z,94225.2
2019-05-19T03:30:03.417Z,94227.8
2019-05-19T03:31:05.877Z,94230.8
2019-05-19T03:33:13.335Z,94231.5
2019-05-19T03:34:15.523Z,94233.5
2019-05-19T03:35:17.392Z,94232.2
2019-05-19T03:36:19.565Z,94232.7
2019-05-19T03:37:21.988Z,94232.3
2019-05-19T03:38:24.413Z,94235.9
2019-05-19T03:39:26.843Z,94237.8
2019-05-19T03:40:28.746Z,94237.9
2019-05-19T03:41:31.172Z,94235.4
2019-05-19T03:42:33.056Z,94238.6
2019-05-19T03:43:35.524Z,94238.5
2019-05-19T03:44:37.956Z,94241.3
2019-05-19T03:45:40.094Z,94238.2
2019-05-19T03:46:42.521Z,94247.8
2019-05-19T03:47:44.404Z,94243.1
2019-05-19T03:48:46.834Z,94244.9
2019-05-19T03:49:48.985Z,94245.5
2019-05-19T03:50:51.436Z,94243.3
2019-05-19T03:51:53.874Z,94251.7
2019-05-19T03:52:56.027Z,94249.5
2019-05-19T03:53:58.474Z,94246.1
2019-05-19T03:55:00.894Z,94243.6
2019-05-19T03:56:03.333Z,94241.2
2019-05-19T03:57:05.486Z,94241.3
2019-05-19T03:58:07.626Z,94242.2
2019-05-19T03:59:10.619Z,94241.2
2019-05-19T04:00:12.737Z,94240.7
2019-05-19T04:01:14.887Z,94240.9
2019-05-19T04:02:17.055Z,94235.4
2019-05-19T04:03:19.213Z,94239.8
2019-05-19T04:04:21.365Z,94235.2
2019-05-19T04:05:23.541Z,94238
2019-05-19T04:06:25.684Z,94240.2
2019-05-19T04:07:27.849Z,94244.8
2019-05-19T04:08:29.997Z,94245.5
2019-05-19T04:09:32.433Z,94242
2019-05-19T04:10:34.582Z,94241.9
2019-05-19T04:11:37.008Z,94246
2019-05-19T04:12:39.436Z,94246.8
2019-05-19T04:13:41.877Z,94249.4
2019-05-19T04:14:44.294Z,94250.4
2019-05-19T04:15:46.535Z,94254.8
2019-05-19T04:16:48.965Z,94253.8
2019-05-19T04:17:51.115Z,94251.7
2019-05-19T04:18:53.553Z,94255.8
2019-05-19T04:19:55.986Z,94252
2019-05-19T04:20:57.844Z,94253.6
2019-05-19T04:22:00.280Z,94253.1
2019-05-19T04:23:01.894Z,94256.8
2019-05-19T04:24:04.442Z,94252.3
2019-05-19T04:25:06.339Z,94253.3
2019-05-19T04:26:08.493Z,94253.2
2019-05-19T04:27:10.924Z,94251.9
2019-05-19T04:28:13.440Z,94254
2019-05-19T04:29:15.869Z,94254.8
2019-05-19T04:30:18.027Z,94257.9
2019-05-19T04:31:20.442Z,94256.9
2019-05-19T04:32:22.616Z,94257.3
2019-05-19T04:33:24.764Z,94255.1
2019-05-19T04:34:27.197Z,94258.3
2019-05-19T04:35:29.346Z,94258.3
2019-05-19T04:36:31.508Z,94258.7
2019-05-19T04:37:33.683Z,94257.5
2019-05-19T04:38:35.839Z,94259.6
2019-05-19T04:39:38.256Z,94264.5
2019-05-19T04:40:40.424Z,94264
2019-05-19T04:41:42.584Z,94259.4
2019-05-19T04:42:44.791Z,94265
2019-05-19T04:43:46.946Z,94263.4
2019-05-19T04:44:49.088Z,94260.4
2019-05-19T04:45:50.957Z,94258.3
2019-05-19T04:46:53.385Z,94262
2019-05-19T04:47:55.804Z,94262.4
2019-05-19T04:48:57.961Z,94261.3
2019-05-19T04:50:00.393Z,94261.2
2019-05-19T04:51:02.819Z,94263.7
2019-05-19T04:53:10.237Z,94261.7
2019-05-19T04:54:12.415Z,94261.2
2019-05-19T04:55:14.847Z,94261.4
2019-05-19T04:57:22.310Z,94256.2
2019-05-19T04:58:24.432Z,94258.8
2019-05-19T04:59:26.904Z,94259.3
2019-05-19T05:00:29.337Z,94262.2
2019-05-19T05:01:31.474Z,94260.6
2019-05-19T05:02:33.906Z,94260
2019-05-19T05:03:36.348Z,94259.2
2019-05-19T05:04:38.785Z,94260.3
2019-05-19T05:05:41.216Z,94258.6
2019-05-19T05:06:44.251Z,94266.8
2019-05-19T05:07:46.682Z,94265.2
2019-05-19T05:08:49.114Z,94263.8
2019-05-19T05:09:51.266Z,94261.9
2019-05-19T05:10:53.408Z,94263.2
2019-05-19T05:11:55.545Z,94263.8
2019-05-19T05:12:57.966Z,94264.4
2019-05-19T05:14:00.130Z,94265.8
2019-05-19T05:15:02.575Z,94265.9
2019-05-19T05:16:04.727Z,94264.7
2019-05-19T05:17:07.164Z,94263.9
2019-05-19T05:18:09.596Z,94264.2
2019-05-19T05:19:12.039Z,94262.7
2019-05-19T05:20:14.506Z,94261.8
2019-05-19T05:21:16.924Z,94265.9
2019-05-19T05:23:24.072Z,94259.6
2019-05-19T05:25:31.485Z,94261
2019-05-19T05:26:33.928Z,94260
2019-05-19T05:27:36.350Z,94259.7
2019-05-19T05:28:38.480Z,94262.5
2019-05-19T05:29:40.902Z,94258.9
2019-05-19T05:30:42.491Z,94259.2
2019-05-19T05:31:44.920Z,94258.2
2019-05-19T05:32:47.368Z,94261.7
2019-05-19T05:33:49.800Z,94259.5
2019-05-19T05:34:52.243Z,94262.5
2019-05-19T05:35:54.672Z,94265.8
2019-05-19T05:36:56.816Z,94265
2019-05-19T05:37:58.956Z,94261.8
2019-05-19T05:39:01.396Z,94268.5
2019-05-19T05:40:03.591Z,94264.9
2019-05-19T05:41:05.810Z,94268.3
2019-05-19T05:42:07.706Z,94263.8
2019-05-19T05:43:10.124Z,94263.1
2019-05-19T05:44:12.282Z,94263
2019-05-19T05:45:14.741Z,94265
2019-05-19T05:46:17.193Z,94265.9
2019-05-19T05:47:19.094Z,94263.9
2019-05-19T05:48:21.260Z,94267.7
2019-05-19T05:49:23.696Z,94269.9
2019-05-19T05:50:26.148Z,94269.3
2019-05-19T05:51:28.309Z,94268.5
2019-05-19T05:53:35.736Z,94265.5
2019-05-19T05:54:38.184Z,94264.9
2019-05-19T05:55:40.616Z,94264.7
2019-05-19T05:56:43.056Z,94265.9
2019-05-19T05:57:45.484Z,94269.8
2019-05-19T05:58:48.112Z,94272.6
2019-05-19T05:59:50.546Z,94271.4
2019-05-19T06:00:53.005Z,94272.9
2019-05-19T06:01:55.138Z,94273.5
2019-05-19T06:02:57.277Z,94269.6
2019-05-19T06:03:59.704Z,94271.8
2019-05-19T06:05:02.132Z,94272.2
2019-05-19T06:06:04.552Z,94267.1
2019-05-19T06:07:06.988Z,94267.1
2019-05-19T06:08:09.117Z,94273.7
2019-05-19T06:09:11.545Z,94273.4
2019-05-19T06:10:13.964Z,94270.5
2019-05-19T06:11:16.393Z,94269.3
2019-05-19T06:12:18.823Z,94266.9
2019-05-19T06:13:20.971Z,94263.8
2019-05-19T06:14:24.006Z,94266.5
2019-05-19T06:15:26.390Z,94262.6
2019-05-19T06:16:28.621Z,94264.5
2019-05-19T06:17:30.532Z,94266
2019-05-19T06:18:34.897Z,94262.5
2019-05-19T06:19:37.372Z,94262
2019-05-19T06:20:39.523Z,94264.8
2019-05-19T06:21:42.543Z,94263.2
2019-05-19T06:23:49.996Z,94259.4
2019-05-19T06:24:52.159Z,94261.2
2019-05-19T06:25:54.298Z,94261.5
2019-05-19T06:26:56.440Z,94263
2019-05-19T06:28:00.439Z,94270.5
2019-05-19T06:29:03.457Z,94268
2019-05-19T06:31:12.096Z,94265.7
2019-05-19T06:32:14.252Z,94266.6
2019-05-19T06:33:16.405Z,94264.9
2019-05-19T06:34:18.546Z,94266
2019-05-19T06:35:21.164Z,94268.4
2019-05-19T06:36:23.597Z,94270.6
2019-05-19T06:37:25.756Z,94275.4
2019-05-19T06:38:28.608Z,94271.5
2019-05-19T06:39:31.025Z,94277.2
2019-05-19T06:40:33.456Z,94278.1
2019-05-19T06:41:35.615Z,94276.4
2019-05-19T06:42:37.475Z,94277.1
2019-05-19T06:43:39.910Z,94272
2019-05-19T06:44:42.340Z,94271
2019-05-19T06:45:44.786Z,94271
2019-05-19T06:46:47.231Z,94271.7
2019-05-19T06:47:49.360Z,94270.3
2019-05-19T06:48:51.774Z,94270.1
2019-05-19T06:49:54.210Z,94267.7
2019-05-19T06:50:56.645Z,94266.3
2019-05-19T06:51:59.064Z,94270.7
2019-05-19T06:54:06.242Z,94269.9
2019-05-19T06:55:08.670Z,94271.1
2019-05-19T06:56:11.093Z,94268.8
2019-05-19T06:57:13.913Z,94271.6
2019-05-19T06:58:15.908Z,94270.7
2019-05-19T06:59:18.222Z,94270.9
2019-05-19T07:00:20.660Z,94265.4
2019-05-19T07:01:23.096Z,94262.7
2019-05-19T07:02:25.515Z,94263.4
2019-05-19T07:03:27.954Z,94265.2
2019-05-19T07:04:29.854Z,94259.6
2019-05-19T07:05:33.040Z,94256.1
2019-05-19T07:06:35.828Z,94254
2019-05-19T07:07:38.860Z,94252.2
2019-05-19T07:08:41.296Z,94251.9
2019-05-19T07:10:48.719Z,94247.1
2019-05-19T07:11:50.869Z,94247.9
2019-05-19T07:12:53.318Z,94249.4
2019-05-19T07:13:55.737Z,94248
2019-05-19T07:14:57.896Z,94249.3
2019-05-19T07:16:00.329Z,94243.5
2019-05-19T07:17:02.779Z,94244.8
2019-05-19T07:18:05.250Z,94244.6
2019-05-19T07:19:07.459Z,94245.2
2019-05-19T07:20:09.919Z,94245.2
2019-05-19T07:21:12.356Z,94243.7
2019-05-19T07:22:14.778Z,94247.6
2019-05-19T07:24:22.168Z,94251.1
2019-05-19T07:25:24.592Z,94247.7
2019-05-19T07:26:27.068Z,94249.1
2019-05-19T07:27:29.846Z,94250.1
2019-05-19T07:28:32.296Z,94246.4
2019-05-19T07:29:34.728Z,94243.1
2019-05-19T07:30:37.188Z,94242
2019-05-19T07:31:39.665Z,94242.5
2019-05-19T07:32:42.090Z,94242.1
2019-05-19T07:33:44.251Z,94238
2019-05-19T07:34:46.690Z,94240.2
2019-05-19T07:35:48.854Z,94232.8
2019-05-19T07:36:51.004Z,94235.1
2019-05-19T07:37:52.854Z,94236.6
2019-05-19T07:38:55.295Z,94231.9
2019-05-19T07:39:57.733Z,94231.4
2019-05-19T07:41:00.147Z,94233.3
2019-05-19T07:42:02.580Z,94235.7
2019-05-19T07:43:05.011Z,94232.9
2019-05-19T07:44:07.433Z,94231
2019-05-19T07:45:09.859Z,94233.4
2019-05-19T07:46:12.045Z,94231.6
2019-05-19T07:47:14.182Z,94234
2019-05-19T07:48:16.323Z,94230.6
2019-05-19T07:49:18.768Z,94237.4
2019-05-19T07:50:20.932Z,94236.8
2019-05-19T07:51:24.003Z,94234.9
2019-05-19T07:52:26.448Z,94234.3
2019-05-19T07:54:34.335Z,94231.8
2019-05-19T07:55:36.794Z,94237.5
2019-05-19T07:56:39.226Z,94239.4
2019-05-19T07:57:41.405Z,94238.9
2019-05-19T07:58:43.570Z,94236.7
2019-05-19T07:59:45.736Z,94241.3
2019-05-19T08:00:47.607Z,94240.1
2019-05-19T08:01:50.114Z,94240.7
2019-05-19T08:02:52.714Z,94237.5
2019-05-19T08:03:55.147Z,94243.4
2019-05-19T08:04:57.597Z,94241.9
2019-05-19T08:05:59.748Z,94247.5
2019-05-19T08:07:02.177Z,94246.7
2019-05-19T08:08:05.164Z,94246.2
2019-05-19T08:09:07.065Z,94241.5
2019-05-19T08:10:09.232Z,94244.7
2019-05-19T08:11:11.777Z,94244.3
2019-05-19T08:12:14.200Z,94243.2
2019-05-19T08:13:16.631Z,94243
2019-05-19T08:14:18.495Z,94244
2019-05-19T08:15:20.923Z,94246.7
2019-05-19T08:16:23.133Z,94247.8
2019-05-19T08:17:27.511Z,94247.7
2019-05-19T08:18:29.431Z,94247.7
2019-05-19T08:19:31.862Z,94249
2019-05-19T08:20:34.025Z,94250.3
2019-05-19T08:21:36.458Z,94251.2
2019-05-19T08:22:38.612Z,94248.6
2019-05-19T08:23:41.074Z,94250.9
2019-05-19T08:24:42.935Z,94252
2019-05-19T08:25:45.388Z,94254.6
2019-05-19T08:26:47.817Z,94249
2019-05-19T08:27:50.269Z,94253.1
2019-05-19T08:28:52.687Z,94255.4
2019-05-19T08:29:54.893Z,94253.3
2019-05-19T08:30:57.365Z,94252.8
2019-05-19T08:31:59.790Z,94254.1
2019-05-19T08:33:01.958Z,94250.3
2019-05-19T08:34:04.424Z,94248.1
2019-05-19T08:35:06.867Z,94254
2019-05-19T08:36:09.284Z,94257
2019-05-19T08:37:11.714Z,94253.8
2019-05-19T08:38:13.866Z,94251.5
2019-05-19T08:39:16.299Z,94252.6
2019-05-19T08:40:18.453Z,94254.1
2019-05-19T08:41:20.645Z,94252.1
2019-05-19T08:42:22.830Z,94253.9
2019-05-19T08:43:24.996Z,94251
2019-05-19T08:44:27.422Z,94252.5
2019-05-19T08:45:29.596Z,94250.3
2019-05-19T08:46:32.037Z,94252.7
2019-05-19T08:47:34.193Z,94250.1
2019-05-19T08:48:36.634Z,94251.8
2019-05-19T08:49:39.065Z,94247.7
2019-05-19T08:50:41.227Z,94247.4
2019-05-19T08:51:44.429Z,94246.2
2019-05-19T08:52:46.318Z,94237.5
2019-05-19T08:53:48.443Z,94245.9
2019-05-19T08:54:50.877Z,94246.2
2019-05-19T08:55:53.314Z,94250.9
2019-05-19T08:56:55.736Z,94247.3
2019-05-19T08:57:58.171Z,94243.9
2019-05-19T08:59:00.344Z,94243.9
2019-05-19T09:00:02.955Z,94244.7
2019-05-19T09:01:05.494Z,94245.7
2019-05-19T09:02:07.937Z,94247.5
2019-05-19T09:03:10.094Z,94246.1
2019-05-19T09:04:12.528Z,94243.8
2019-05-19T09:05:14.951Z,94242.6
2019-05-19T09:06:17.107Z,94241.8
2019-05-19T09:07:19.281Z,94243.6
2019-05-19T09:08:21.483Z,94241.8
2019-05-19T09:09:23.678Z,94238.3
2019-05-19T09:10:25.845Z,94238.6
2019-05-19T09:11:28.327Z,94240.8
2019-05-19T09:12:30.529Z,94240
2019-05-19T09:13:33.060Z,94241.7
2019-05-19T09:14:36.078Z,94237.7
2019-05-19T09:15:38.504Z,94244
2019-05-19T09:16:40.656Z,94242.2
2019-05-19T09:17:42.807Z,94240.2
2019-05-19T09:18:44.964Z,94239.5
2019-05-19T09:19:47.125Z,94241.6
2019-05-19T09:20:49.254Z,94244.8
2019-05-19T09:21:51.682Z,94240
2019-05-19T09:22:54.105Z,94239.4
2019-05-19T09:23:56.647Z,94237.3
2019-05-19T09:24:59.299Z,94234.2
2019-05-19T09:26:01.454Z,94234.3
2019-05-19T09:27:03.899Z,94229.8
2019-05-19T09:28:06.063Z,94232.1
2019-05-19T09:29:08.494Z,94232.7
2019-05-19T09:30:10.917Z,94227.6
2019-05-19T09:31:12.793Z,94226.3
2019-05-19T09:32:15.225Z,94226.2
2019-05-19T09:33:17.385Z,94222.3
2019-05-19T09:34:19.549Z,94224
2019-05-19T09:35:21.983Z,94220.4
2019-05-19T09:36:24.447Z,94219.7
2019-05-19T09:37:26.626Z,94224.4
2019-05-19T09:38:29.060Z,94222
2019-05-19T09:39:31.521Z,94222.8
2019-05-19T09:40:33.975Z,94223.4
2019-05-19T09:41:36.443Z,94222.8
2019-05-19T09:42:38.610Z,94219.1
2019-05-19T09:43:40.709Z,94217.6
2019-05-19T09:44:43.149Z,94214.9
2019-05-19T09:45:45.617Z,94217.9
2019-05-19T09:46:48.043Z,94216.9
2019-05-19T09:47:50.199Z,94216.8
2019-05-19T09:48:52.802Z,94212.6
2019-05-19T09:49:54.967Z,94211.6
2019-05-19T09:50:57.207Z,94207.7
2019-05-19T09:51:59.636Z,94210.5
2019-05-19T09:53:01.773Z,94206.6
2019-05-19T09:54:03.935Z,94207.2
2019-05-19T09:55:06.543Z,94205.4
2019-05-19T09:56:09.039Z,94201.9
2019-05-19T09:57:11.535Z,94206.4
2019-05-19T09:59:18.980Z,94198
2019-05-19T10:00:21.425Z,94195.3
2019-05-19T10:01:23.863Z,94190.5
2019-05-19T10:02:26.039Z,94193
2019-05-19T10:03:27.920Z,94190.8
2019-05-19T10:04:29.817Z,94187.5
2019-05-19T10:05:31.724Z,94185.3
2019-05-19T10:06:34.155Z,94183.3
2019-05-19T10:07:36.349Z,94186.9
2019-05-19T10:08:38.519Z,94181.3
2019-05-19T10:09:40.954Z,94180.7
2019-05-19T10:10:43.129Z,94183
2019-05-19T10:11:45.556Z,94175.1
2019-05-19T10:12:47.995Z,94179.3
2019-05-19T10:13:50.193Z,94183
2019-05-19T10:14:52.619Z,94183.3
2019-05-19T10:15:54.783Z,94185.4
2019-05-19T10:16:57.204Z,94177.9
2019-05-19T10:17:59.067Z,94180.7
2019-05-19T10:19:01.493Z,94181.2
2019-05-19T10:20:04.143Z,94181
2019-05-19T10:21:06.316Z,94183.3
2019-05-19T10:22:08.505Z,94180.3
2019-05-19T10:23:10.402Z,94181.3
2019-05-19T10:24:12.911Z,94181.6
2019-05-19T10:26:19.920Z,94182.2
2019-05-19T10:27:23.338Z,94181.9
2019-05-19T10:28:25.769Z,94180.3
2019-05-19T10:29:27.761Z,94176
2019-05-19T10:30:30.385Z,94181
2019-05-19T10:31:32.585Z,94180.8
2019-05-19T10:32:35.026Z,94177.6
2019-05-19T10:33:37.212Z,94180.3
2019-05-19T10:34:39.651Z,94177
2019-05-19T10:35:42.079Z,94171.6
2019-05-19T10:36:44.541Z,94175.8
2019-05-19T10:37:46.965Z,94176.8
2019-05-19T10:38:49.114Z,94176.7
2019-05-19T10:39:51.285Z,94177
2019-05-19T10:40:53.158Z,94175.3
2019-05-19T10:41:55.687Z,94175.9
2019-05-19T10:42:58.252Z,94170.8
2019-05-19T10:44:02.319Z,94172.8
2019-05-19T10:45:04.479Z,94167.9
2019-05-19T10:46:06.630Z,94171.6
2019-05-19T10:47:09.076Z,94166.9
2019-05-19T10:48:11.239Z,94166
2019-05-19T10:49:13.132Z,94163.3
2019-05-19T10:50:15.556Z,94165.8
2019-05-19T10:51:17.994Z,94162.2
2019-05-19T10:52:20.564Z,94168.2
2019-05-19T10:53:22.993Z,94166.4
2019-05-19T10:54:25.458Z,94163.4
2019-05-19T10:56:32.596Z,94161.3
2019-05-19T10:57:35.041Z,94156.7
2019-05-19T10:58:37.465Z,94159.3
2019-05-19T10:59:39.702Z,94158.6
2019-05-19T11:00:42.121Z,94150.5
2019-05-19T11:01:44.266Z,94149.7
2019-05-19T11:02:46.425Z,94152.3
2019-05-19T11:03:48.333Z,94150.6
2019-05-19T11:04:50.510Z,94146.2
2019-05-19T11:05:52.695Z,94145.8
2019-05-19T11:06:55.125Z,94145.2
2019-05-19T11:07:57.557Z,94146
2019-05-19T11:09:00.000Z,94139.8
2019-05-19T11:10:02.425Z,94143
2019-05-19T11:11:04.560Z,94144.4
2019-05-19T11:12:06.987Z,94145.3
2019-05-19T11:13:09.152Z,94142.6
2019-05-19T11:14:11.586Z,94141.3
2019-05-19T11:15:14.020Z,94136.6
2019-05-19T11:16:16.445Z,94142.7
2019-05-19T11:17:18.305Z,94142.1
2019-05-19T11:18:20.766Z,94138.8
2019-05-19T11:19:22.933Z,94137.3
2019-05-19T11:20:25.361Z,94141.2
2019-05-19T11:21:27.792Z,94143.6
2019-05-19T11:22:29.679Z,94141.5
2019-05-19T11:23:31.841Z,94141.4
2019-05-19T11:24:34.015Z,94145.8
2019-05-19T11:26:42.092Z,94137.9
2019-05-19T11:27:44.536Z,94140
2019-05-19T11:28:46.659Z,94135.6
2019-05-19T11:29:49.103Z,94134.7
2019-05-19T11:30:51.567Z,94134.7
2019-05-19T11:31:53.723Z,94136.1
2019-05-19T11:32:56.158Z,94133.4
2019-05-19T11:33:58.298Z,94137.2
2019-05-19T11:35:00.755Z,94130
2019-05-19T11:36:03.359Z,94129.9
2019-05-19T11:38:10.775Z,94128.5
2019-05-19T11:39:13.735Z,94128.7
2019-05-19T11:40:15.922Z,94126.2
2019-05-19T11:41:18.067Z,94127.1
2019-05-19T11:42:19.928Z,94129.4
2019-05-19T11:43:22.083Z,94126
2019-05-19T11:44:24.237Z,94125.8
2019-05-19T11:45:26.667Z,94126.3
2019-05-19T11:46:29.093Z,94123.6
2019-05-19T11:47:31.521Z,94125.8
2019-05-19T11:48:33.687Z,94125.3
2019-05-19T11:49:35.853Z,94122.1
2019-05-19T11:51:43.785Z,94122.4
2019-05-19T11:52:46.234Z,94121.2
2019-05-19T11:53:48.393Z,94122.1
2019-05-19T11:54:50.567Z,94121
2019-05-19T11:56:57.734Z,94116.3
2019-05-19T11:58:00.169Z,94117.3
2019-05-19T11:59:02.682Z,94115.6
2019-05-19T12:00:05.136Z,94115
2019-05-19T12:01:07.582Z,94114.9
2019-05-19T12:02:10.005Z,94113.7
2019-05-19T12:03:12.434Z,94111.8
2019-05-19T12:04:14.347Z,94112.8
2019-05-19T12:05:16.783Z,94112.1
2019-05-19T12:06:18.662Z,94111.9
2019-05-19T12:07:20.812Z,94110.9
2019-05-19T12:08:23.245Z,94108.2
2019-05-19T12:09:25.361Z,94111.1
2019-05-19T12:10:27.539Z,94111.6
2019-05-19T12:11:29.692Z,94112.5
2019-05-19T12:12:32.163Z,94114.2
2019-05-19T12:13:36.320Z,94111.3
2019-05-19T12:14:38.227Z,94111.8
2019-05-19T12:15:40.380Z,94113.5
2019-05-19T12:16:42.675Z,94115.3
2019-05-19T12:17:44.845Z,94111.8
2019-05-19T12:18:47.262Z,94113.2
2019-05-19T12:19:49.702Z,94108.5
2019-05-19T12:20:52.135Z,94109.8
2019-05-19T12:21:54.571Z,94112.1
2019-05-19T12:22:57.054Z,94106.8
2019-05-19T12:23:59.500Z,94108.5
2019-05-19T12:25:01.931Z,94104.6
2019-05-19T12:26:04.357Z,94105
2019-05-19T12:27:06.808Z,94105.7
2019-05-19T12:28:09.240Z,94102.1
2019-05-19T12:29:11.397Z,94102.1
2019-05-19T12:30:13.815Z,94103.4
2019-05-19T12:31:16.291Z,94101.1
2019-05-19T12:32:18.757Z,94102.4
2019-05-19T12:33:21.239Z,94098.3
2019-05-19T12:34:23.145Z,94099.2
2019-05-19T12:35:25.580Z,94100
2019-05-19T12:36:28.010Z,94097
2019-05-19T12:37:30.451Z,94096.5
2019-05-19T12:38:32.883Z,94091.3
2019-05-19T12:39:35.364Z,94100.3
2019-05-19T12:40:37.275Z,94092.7
2019-05-19T12:41:39.710Z,94091.4
2019-05-19T12:42:42.148Z,94090.8
2019-05-19T12:43:44.569Z,94087.9
2019-05-19T12:44:46.731Z,94090
2019-05-19T12:45:48.987Z,94096.9
2019-05-19T12:46:51.421Z,94094.7
2019-05-19T12:47:53.859Z,94089.7
2019-05-19T12:48:56.316Z,94086.4
2019-05-19T12:49:58.751Z,94084.6
2019-05-19T12:51:01.291Z,94082.5
2019-05-19T12:52:03.503Z,94081.2
2019-05-19T12:53:06.004Z,94084.1
2019-05-19T12:54:08.198Z,94083.4
2019-05-19T12:55:10.423Z,94084.8
2019-05-19T12:56:12.854Z,94082
2019-05-19T12:57:15.282Z,94084.3
2019-05-19T12:58:17.635Z,94090.3
2019-05-19T12:59:20.323Z,94083.2
2019-05-19T13:00:22.764Z,94077.6
2019-05-19T13:01:25.204Z,94077.1
2019-05-19T13:02:27.075Z,94072.1
2019-05-19T13:03:29.192Z,94076